createdAt,value
2023-05-21T00:00:43.005Z,12.63
2023-05-21T00:03:14.014Z,11.60
2023-05-21T00:05:42.704Z,12.43
2023-05-21T00:08:10.936Z,11.50
2023-05-21T00:10:39.002Z,12.27
2023-05-21T00:13:07.132Z,14.07
2023-05-21T00:15:35.462Z,14.80
2023-05-21T00:18:05.453Z,11.83
2023-05-21T00:20:33.765Z,12.73
2023-05-21T00:23:03.939Z,12.40
2023-05-21T00:25:32.206Z,13.50
2023-05-21T00:28:00.238Z,12.40
2023-05-21T00:30:28.266Z,11.10
2023-05-21T00:32:59.089Z,12.10
2023-05-21T00:35:28.697Z,11.00
2023-05-21T00:37:57.332Z,12.07
2023-05-21T00:40:25.813Z,10.93
2023-05-21T00:42:57.304Z,11.40
2023-05-21T00:45:25.680Z,12.53
2023-05-21T00:47:55.625Z,12.30
2023-05-21T00:50:24.377Z,11.87
2023-05-21T00:52:54.468Z,11.83
2023-05-21T00:55:22.928Z,11.73
2023-05-21T00:57:50.943Z,10.83
2023-05-21T01:00:19.060Z,12.40
2023-05-21T01:02:48.000Z,11.50
2023-05-21T01:05:16.388Z,11.07
2023-05-21T01:07:44.627Z,12.03
2023-05-21T01:10:14.279Z,12.20
2023-05-21T01:12:45.335Z,10.83
2023-05-21T01:15:14.219Z,11.23
2023-05-21T01:17:42.576Z,10.13
2023-05-21T01:20:12.216Z,11.50
2023-05-21T01:22:44.649Z,12.63
2023-05-21T01:25:15.051Z,11.00
2023-05-21T01:27:43.247Z,12.10
2023-05-21T01:30:12.410Z,10.43
2023-05-21T01:32:49.301Z,10.43
2023-05-21T01:35:22.780Z,11.77
2023-05-21T01:37:56.609Z,10.50
2023-05-21T01:40:32.930Z,11.00
2023-05-21T01:43:01.456Z,11.17
2023-05-21T01:45:33.251Z,11.77
2023-05-21T01:48:01.959Z,10.17
2023-05-21T01:50:32.010Z,11.10
2023-05-21T01:53:01.083Z,10.03
2023-05-21T01:55:30.786Z,10.10
2023-05-21T01:58:02.007Z,11.27
2023-05-21T02:00:32.569Z,12.07
2023-05-21T02:03:00.817Z,10.67
2023-05-21T02:05:28.974Z,13.87
2023-05-21T02:07:57.258Z,13.27
2023-05-21T02:10:25.296Z,11.07
2023-05-21T02:12:54.692Z,10.63
2023-05-21T02:15:24.958Z,12.20
2023-05-21T02:17:53.122Z,10.60
2023-05-21T02:20:22.751Z,10.37
2023-05-21T02:22:51.087Z,10.43
2023-05-21T02:25:20.722Z,10.57
2023-05-21T02:27:52.823Z,10.43
2023-05-21T02:30:22.352Z,11.43
2023-05-21T02:32:50.813Z,9.80
2023-05-21T02:35:19.021Z,10.00
2023-05-21T02:37:47.074Z,13.90
2023-05-21T02:40:15.286Z,10.47
2023-05-21T02:42:43.419Z,11.30
2023-05-21T02:45:12.893Z,11.00
2023-05-21T02:47:42.438Z,10.23
2023-05-21T02:50:10.905Z,11.13
2023-05-21T02:52:38.964Z,9.50
2023-05-21T02:55:08.090Z,9.90
2023-05-21T02:57:36.210Z,9.93
2023-05-21T03:00:06.584Z,9.37
2023-05-21T03:02:34.870Z,9.77
2023-05-21T03:05:05.244Z,9.63
2023-05-21T03:07:33.269Z,9.67
2023-05-21T03:10:01.367Z,9.20
2023-05-21T03:12:29.425Z,8.57
2023-05-21T03:14:57.493Z,8.27
2023-05-21T03:17:25.692Z,9.30
2023-05-21T03:19:54.668Z,9.57
2023-05-21T03:22:24.125Z,8.77
2023-05-21T03:24:53.453Z,9.03
2023-05-21T03:27:21.552Z,9.37
2023-05-21T03:29:50.118Z,8.90
2023-05-21T03:32:18.320Z,8.87
2023-05-21T03:34:46.415Z,8.90
2023-05-21T03:37:14.560Z,8.73
2023-05-21T03:39:44.047Z,8.93
2023-05-21T03:42:14.083Z,9.07
2023-05-21T03:44:42.192Z,9.30
2023-05-21T03:47:10.249Z,11.97
2023-05-21T03:49:38.250Z,8.67
2023-05-21T03:52:06.599Z,8.57
2023-05-21T03:54:34.624Z,7.83
2023-05-21T03:57:04.004Z,9.10
2023-05-21T03:59:32.073Z,8.07
2023-05-21T04:02:00.099Z,9.43
2023-05-21T04:04:29.460Z,9.30
2023-05-21T04:06:57.655Z,9.30
2023-05-21T04:09:25.740Z,7.30
2023-05-21T04:11:53.958Z,9.00
2023-05-21T04:14:23.754Z,8.87
2023-05-21T04:16:51.902Z,9.63
2023-05-21T04:19:20.227Z,7.47
2023-05-21T04:21:48.426Z,7.60
2023-05-21T04:24:16.429Z,8.13
2023-05-21T04:26:44.637Z,7.80
2023-05-21T04:29:12.719Z,9.17
2023-05-21T04:31:42.331Z,8.40
2023-05-21T04:34:10.561Z,7.67
2023-05-21T04:36:39.211Z,8.30
2023-05-21T04:39:07.386Z,9.30
2023-05-21T04:41:36.751Z,8.67
2023-05-21T04:44:04.929Z,9.73
2023-05-21T04:46:33.047Z,7.80
2023-05-21T04:49:03.782Z,8.93
2023-05-21T04:51:32.247Z,8.03
2023-05-21T04:54:00.386Z,9.43
2023-05-21T04:56:28.527Z,9.50
2023-05-21T04:58:58.565Z,9.07
2023-05-21T05:01:27.409Z,10.80
2023-05-21T05:03:55.654Z,10.00
2023-05-21T05:06:25.894Z,8.10
2023-05-21T05:08:54.245Z,8.73
2023-05-21T05:11:22.425Z,7.60
2023-05-21T05:13:50.581Z,9.83
2023-05-21T05:16:24.995Z,8.10
2023-05-21T05:18:53.660Z,9.27
2023-05-21T05:21:24.700Z,8.27
2023-05-21T05:23:52.906Z,9.10
2023-05-21T05:26:21.650Z,8.70
2023-05-21T05:28:49.728Z,8.83
2023-05-21T05:31:17.858Z,8.17
2023-05-21T05:33:46.189Z,7.67
2023-05-21T05:36:14.271Z,9.00
2023-05-21T05:38:43.868Z,8.00
2023-05-21T05:41:11.981Z,8.20
2023-05-21T05:43:40.039Z,8.13
2023-05-21T05:46:08.190Z,9.23
2023-05-21T05:48:36.321Z,8.70
2023-05-21T05:51:04.466Z,8.47
2023-05-21T05:53:33.128Z,8.60
2023-05-21T05:56:02.644Z,8.53
2023-05-21T05:58:31.685Z,7.93
2023-05-21T06:00:59.783Z,9.37
2023-05-21T06:03:28.720Z,8.97
2023-05-21T06:05:57.029Z,8.03
2023-05-21T06:08:25.439Z,10.23
2023-05-21T06:10:53.568Z,7.90
2023-05-21T06:13:23.019Z,8.53
2023-05-21T06:15:51.556Z,9.47
2023-05-21T06:18:19.719Z,7.87
2023-05-21T06:20:47.757Z,8.33
2023-05-21T06:23:16.193Z,11.17
2023-05-21T06:25:44.356Z,8.47
2023-05-21T06:28:12.568Z,8.00
2023-05-21T06:30:41.962Z,8.03
2023-05-21T06:33:10.128Z,8.57
2023-05-21T06:35:39.917Z,9.73
2023-05-21T06:38:07.953Z,8.07
2023-05-21T06:40:36.412Z,9.33
2023-05-21T06:43:05.505Z,9.87
2023-05-21T06:45:33.612Z,9.13
2023-05-21T06:48:03.193Z,8.90
2023-05-21T06:50:31.506Z,9.53
2023-05-21T06:52:59.541Z,8.17
2023-05-21T06:55:27.618Z,9.10
2023-05-21T06:57:55.820Z,8.33
2023-05-21T07:00:23.913Z,8.23
2023-05-21T07:02:52.189Z,8.83
2023-05-21T07:05:21.912Z,8.47
2023-05-21T07:07:49.948Z,8.70
2023-05-21T07:10:18.294Z,8.90
2023-05-21T07:12:46.350Z,8.60
2023-05-21T07:15:14.456Z,9.13
2023-05-21T07:17:42.601Z,9.70
2023-05-21T07:20:11.891Z,9.50
2023-05-21T07:22:42.991Z,10.83
2023-05-21T07:25:11.725Z,9.00
2023-05-21T07:27:39.885Z,8.63
2023-05-21T07:30:10.308Z,9.47
2023-05-21T07:32:38.497Z,9.10
2023-05-21T07:35:07.822Z,8.60
2023-05-21T07:37:36.137Z,8.33
2023-05-21T07:40:06.841Z,8.73
2023-05-21T07:42:34.958Z,8.77
2023-05-21T07:45:03.336Z,9.67
2023-05-21T07:47:31.442Z,8.53
2023-05-21T07:49:59.798Z,9.17
2023-05-21T07:52:27.864Z,8.33
2023-05-21T07:54:56.008Z,8.10
2023-05-21T07:57:25.427Z,8.07
2023-05-21T07:59:53.512Z,8.93
2023-05-21T08:02:21.771Z,10.63
2023-05-21T08:04:50.099Z,8.93
2023-05-21T08:07:19.886Z,7.63
2023-05-21T08:09:47.947Z,6.77
2023-05-21T08:12:16.344Z,6.80
2023-05-21T08:14:45.739Z,7.07
2023-05-21T08:17:13.851Z,6.10
2023-05-21T08:19:42.074Z,8.73
2023-05-21T08:22:10.237Z,9.70
2023-05-21T08:24:38.344Z,9.13
2023-05-21T08:27:07.755Z,9.23
2023-05-21T08:29:35.805Z,7.43
2023-05-21T08:32:05.963Z,6.50
2023-05-21T08:34:34.098Z,6.20
2023-05-21T08:37:02.085Z,6.77
2023-05-21T08:39:30.132Z,7.93
2023-05-21T08:42:05.686Z,7.70
2023-05-21T08:44:37.489Z,9.20
2023-05-21T08:47:11.145Z,6.33
2023-05-21T08:49:39.265Z,7.30
2023-05-21T08:52:08.100Z,7.65
2023-05-21T08:54:39.883Z,6.57
2023-05-21T08:57:08.707Z,7.20
2023-05-21T08:59:40.127Z,6.22
2023-05-21T09:02:09.904Z,8.23
2023-05-21T09:04:38.916Z,5.35
2023-05-21T09:07:07.946Z,6.70
2023-05-21T09:09:43.055Z,6.80
2023-05-21T09:12:11.249Z,7.57
2023-05-21T09:14:40.507Z,7.25
2023-05-21T09:17:10.083Z,6.30
2023-05-21T09:19:38.159Z,6.25
2023-05-21T09:22:07.453Z,7.25
2023-05-21T09:24:36.594Z,7.20
2023-05-21T09:27:08.224Z,5.72
2023-05-21T09:29:36.366Z,7.68
2023-05-21T09:32:10.017Z,8.68
2023-05-21T09:34:38.073Z,6.47
2023-05-21T09:37:16.349Z,6.63
2023-05-21T09:39:54.537Z,6.18
2023-05-21T09:42:23.124Z,8.48
2023-05-21T09:44:51.312Z,7.57
2023-05-21T09:47:23.625Z,9.73
2023-05-21T09:49:51.827Z,7.78
2023-05-21T09:52:26.343Z,7.75
2023-05-21T09:54:54.545Z,7.78
2023-05-21T09:57:26.792Z,6.72
2023-05-21T09:59:55.201Z,7.22
2023-05-21T10:02:26.589Z,6.40
2023-05-21T10:04:55.312Z,7.55
2023-05-21T10:07:26.004Z,8.15
2023-05-21T10:09:56.757Z,6.60
2023-05-21T10:12:26.032Z,7.45
2023-05-21T10:15:00.683Z,8.18
2023-05-21T10:17:31.635Z,7.13
2023-05-21T10:20:01.630Z,6.55
2023-05-21T10:22:30.310Z,7.53
2023-05-21T10:24:59.825Z,6.10
2023-05-21T10:27:32.223Z,6.88
2023-05-21T10:30:01.463Z,8.75
2023-05-21T10:32:32.455Z,5.82
2023-05-21T10:35:02.045Z,5.55
2023-05-21T10:37:30.575Z,6.40
2023-05-21T10:39:58.822Z,5.65
2023-05-21T10:43:06.559Z,7.93
2023-05-21T10:45:48.870Z,7.78
2023-05-21T10:48:33.129Z,7.50
2023-05-21T10:51:23.194Z,7.32
2023-05-21T10:54:17.275Z,6.88
2023-05-21T10:56:51.929Z,6.50
2023-05-21T10:59:34.177Z,7.25
2023-05-21T11:02:02.793Z,5.90
2023-05-21T11:04:34.911Z,8.23
2023-05-21T11:07:03.640Z,6.68
2023-05-21T11:09:31.775Z,6.95
2023-05-21T11:12:01.270Z,8.45
2023-05-21T11:14:35.473Z,6.20
2023-05-21T11:17:04.873Z,5.60
2023-05-21T11:19:39.328Z,6.20
2023-05-21T11:22:21.422Z,7.63
2023-05-21T11:24:51.392Z,8.17
2023-05-21T11:27:34.544Z,8.67
2023-05-21T11:30:07.271Z,6.97
2023-05-21T11:32:39.440Z,7.67
2023-05-21T11:35:09.950Z,7.50
2023-05-21T11:37:41.544Z,6.13
2023-05-21T11:40:27.707Z,6.40
2023-05-21T11:42:57.459Z,5.87
2023-05-21T11:45:30.899Z,7.17
2023-05-21T11:47:59.134Z,7.77
2023-05-21T11:50:30.841Z,5.80
2023-05-21T11:53:00.859Z,5.50
2023-05-21T11:55:29.210Z,8.20
2023-05-21T11:57:57.656Z,6.97
2023-05-21T12:00:25.729Z,6.27
2023-05-21T12:02:55.804Z,6.03
2023-05-21T12:05:25.115Z,7.67
2023-05-21T12:07:56.419Z,7.13
2023-05-21T12:10:24.791Z,5.80
2023-05-21T12:12:56.942Z,9.30
2023-05-21T12:15:27.155Z,8.50
2023-05-21T12:17:57.094Z,6.27
2023-05-21T12:20:28.117Z,5.97
2023-05-21T12:22:58.972Z,7.13
2023-05-21T12:25:27.452Z,7.43
2023-05-21T12:27:58.292Z,7.93
2023-05-21T12:30:27.258Z,6.37
2023-05-21T12:32:58.580Z,6.70
2023-05-21T12:35:27.323Z,6.00
2023-05-21T12:37:55.497Z,7.83
2023-05-21T12:40:36.544Z,6.70
2023-05-21T12:43:04.879Z,7.23
2023-05-21T12:45:34.026Z,7.13
2023-05-21T12:48:03.174Z,8.80
2023-05-21T12:50:31.264Z,5.97
2023-05-21T12:53:00.141Z,5.93
2023-05-21T12:55:30.259Z,5.70
2023-05-21T12:58:04.370Z,9.00
2023-05-21T13:00:34.046Z,8.30
2023-05-21T13:03:04.591Z,7.53
2023-05-21T13:05:33.120Z,7.60
2023-05-21T13:08:01.283Z,6.03
2023-05-21T13:10:30.694Z,8.23
2023-05-21T13:12:58.889Z,5.60
2023-05-21T13:15:27.049Z,6.57
2023-05-21T13:17:56.941Z,9.17
2023-05-21T13:20:27.808Z,6.20
2023-05-21T13:22:56.186Z,6.93
2023-05-21T13:25:28.548Z,5.67
2023-05-21T13:27:58.997Z,6.80
2023-05-21T13:30:27.328Z,8.57
2023-05-21T13:32:55.665Z,6.27
2023-05-21T13:35:24.113Z,8.30
2023-05-21T13:37:52.798Z,5.73
2023-05-21T13:40:21.491Z,8.33
2023-05-21T13:42:50.704Z,6.00
2023-05-21T13:45:21.986Z,6.87
2023-05-21T13:47:50.340Z,5.60
2023-05-21T13:50:18.804Z,6.57
2023-05-21T13:52:47.272Z,6.23
2023-05-21T13:55:16.635Z,5.70
2023-05-21T13:57:46.131Z,7.30
2023-05-21T14:00:16.237Z,6.83
2023-05-21T14:02:46.169Z,5.43
2023-05-21T14:05:14.650Z,6.63
2023-05-21T14:07:43.210Z,6.53
2023-05-21T14:10:12.410Z,5.70
2023-05-21T14:12:41.017Z,5.47
2023-05-21T14:15:10.162Z,5.93
2023-05-21T14:17:40.514Z,8.60
2023-05-21T14:20:11.894Z,6.50
2023-05-21T14:22:40.093Z,7.17
2023-05-21T14:25:08.905Z,6.10
2023-05-21T14:27:38.404Z,7.27
2023-05-21T14:30:08.012Z,6.10
2023-05-21T14:32:36.283Z,7.67
2023-05-21T14:35:05.374Z,7.27
2023-05-21T14:37:34.917Z,6.77
2023-05-21T14:40:03.217Z,5.63
2023-05-21T14:42:32.075Z,5.27
2023-05-21T14:45:16.800Z,7.13
2023-05-21T14:47:47.719Z,7.53
2023-05-21T14:50:17.632Z,5.87
2023-05-21T14:52:47.373Z,5.20
2023-05-21T14:55:16.949Z,8.00
2023-05-21T14:57:45.418Z,5.77
2023-05-21T15:00:14.432Z,5.10
2023-05-21T15:02:42.689Z,5.63
2023-05-21T15:05:11.056Z,8.13
2023-05-21T15:07:39.202Z,5.00
2023-05-21T15:10:10.585Z,6.70
2023-05-21T15:12:38.742Z,5.47
2023-05-21T15:15:08.082Z,6.33
2023-05-21T15:17:36.350Z,5.10
2023-05-21T15:20:06.201Z,7.10
2023-05-21T15:22:34.975Z,6.57
2023-05-21T15:25:03.588Z,5.93
2023-05-21T15:27:33.185Z,7.40
2023-05-21T15:30:01.584Z,7.23
2023-05-21T15:32:29.766Z,5.97
2023-05-21T15:34:58.081Z,6.07
2023-05-21T15:37:26.490Z,6.73
2023-05-21T15:39:54.488Z,5.90
2023-05-21T15:42:22.799Z,5.60
2023-05-21T15:44:52.335Z,6.77
2023-05-21T15:47:21.036Z,4.70
2023-05-21T15:49:49.094Z,4.33
2023-05-21T15:52:17.660Z,6.23
2023-05-21T15:54:45.746Z,5.63
2023-05-21T15:57:13.884Z,5.50
2023-05-21T15:59:41.943Z,6.50
2023-05-21T16:02:11.361Z,7.00
2023-05-21T16:04:40.032Z,6.57
2023-05-21T16:07:08.112Z,5.13
2023-05-21T16:09:37.680Z,5.57
2023-05-21T16:12:06.289Z,4.90
2023-05-21T16:14:34.383Z,6.33
2023-05-21T16:17:03.163Z,7.17
2023-05-21T16:19:33.229Z,6.70
2023-05-21T16:22:01.977Z,4.63
2023-05-21T16:24:30.258Z,6.80
2023-05-21T16:26:58.410Z,5.90
2023-05-21T16:29:27.111Z,10.87
2023-05-21T16:31:55.279Z,5.80
2023-05-21T16:34:23.414Z,9.33
2023-05-21T16:36:52.877Z,7.53
2023-05-21T16:39:21.088Z,7.70
2023-05-21T16:41:49.249Z,8.77
2023-05-21T16:44:17.632Z,7.40
2023-05-21T16:46:45.809Z,9.23
2023-05-21T16:49:13.966Z,7.27
2023-05-21T16:51:42.009Z,8.77
2023-05-21T16:54:11.902Z,7.53
2023-05-21T16:56:39.916Z,6.30
2023-05-21T16:59:08.093Z,8.23
2023-05-21T17:01:36.366Z,6.57
2023-05-21T17:04:04.719Z,7.23
2023-05-21T17:06:33.899Z,8.30
2023-05-21T17:09:02.475Z,7.60
2023-05-21T17:11:37.328Z,8.63
2023-05-21T17:14:05.487Z,8.83
2023-05-21T17:16:33.719Z,9.73
2023-05-21T17:19:02.041Z,8.87
2023-05-21T17:21:32.293Z,8.20
2023-05-21T17:24:00.525Z,9.60
2023-05-21T17:26:28.928Z,10.50
2023-05-21T17:29:01.120Z,8.53
2023-05-21T17:31:32.046Z,8.63
2023-05-21T17:34:01.179Z,7.90
2023-05-21T17:36:29.334Z,8.43
2023-05-21T17:38:57.713Z,9.33
2023-05-21T17:41:27.199Z,10.13
2023-05-21T17:43:55.494Z,9.50
2023-05-21T17:46:25.010Z,9.50
2023-05-21T17:48:53.421Z,7.83
2023-05-21T17:51:21.753Z,10.63
2023-05-21T17:53:50.041Z,10.13
2023-05-21T17:56:18.391Z,10.53
2023-05-21T17:58:46.997Z,8.67
2023-05-21T18:01:16.088Z,11.30
2023-05-21T18:03:45.809Z,9.70
2023-05-21T18:06:14.083Z,10.73
2023-05-21T18:08:43.124Z,8.20
2023-05-21T18:11:11.430Z,9.07
2023-05-21T18:13:39.584Z,8.40
2023-05-21T18:16:07.820Z,9.17
2023-05-21T18:18:36.077Z,9.77
2023-05-21T18:21:05.694Z,7.60
2023-05-21T18:23:34.156Z,7.87
2023-05-21T18:26:03.038Z,12.03
2023-05-21T18:28:33.312Z,8.03
2023-05-21T18:31:03.750Z,8.40
2023-05-21T18:33:32.459Z,10.07
2023-05-21T18:36:00.837Z,8.97
2023-05-21T18:38:31.189Z,8.30
2023-05-21T18:40:59.592Z,9.50
2023-05-21T18:43:27.717Z,8.77
2023-05-21T18:45:56.182Z,10.37
2023-05-21T18:48:24.514Z,8.60
2023-05-21T18:50:53.236Z,13.27
2023-05-21T18:53:21.908Z,9.57
2023-05-21T18:55:51.564Z,8.97
2023-05-21T18:58:19.876Z,8.73
2023-05-21T19:00:48.008Z,10.93
2023-05-21T19:03:16.407Z,8.53
2023-05-21T19:05:44.566Z,10.40
2023-05-21T19:08:13.297Z,11.93
2023-05-21T19:10:41.700Z,10.70
2023-05-21T19:13:11.765Z,8.57
2023-05-21T19:15:40.078Z,8.43
2023-05-21T19:18:08.620Z,13.03
2023-05-21T19:20:37.801Z,10.70
2023-05-21T19:23:06.265Z,9.77
2023-05-21T19:25:34.557Z,8.10
2023-05-21T19:28:02.763Z,9.07
2023-05-21T19:30:34.954Z,8.07
2023-05-21T19:33:03.439Z,7.80
2023-05-21T19:35:31.675Z,7.90
2023-05-21T19:38:02.428Z,9.73
2023-05-21T19:40:32.515Z,8.60
2023-05-21T19:43:00.666Z,10.60
2023-05-21T19:45:28.813Z,9.63
2023-05-21T19:47:59.903Z,8.13
2023-05-21T19:50:28.873Z,8.77
2023-05-21T19:52:58.253Z,9.13
2023-05-21T19:55:26.610Z,9.93
2023-05-21T19:57:54.743Z,10.40
2023-05-21T20:00:22.997Z,9.20
2023-05-21T20:02:51.605Z,8.90
2023-05-21T20:05:21.479Z,8.60
2023-05-21T20:07:49.510Z,12.00
2023-05-21T20:10:17.634Z,8.20
2023-05-21T20:12:46.095Z,11.77
2023-05-21T20:15:14.578Z,9.57
2023-05-21T20:17:44.182Z,9.00
2023-05-21T20:20:13.369Z,11.00
2023-05-21T20:22:42.713Z,10.10
2023-05-21T20:25:11.021Z,8.87
2023-05-21T20:27:39.746Z,8.20
2023-05-21T20:30:09.975Z,9.17
2023-05-21T20:32:38.384Z,8.13
2023-05-21T20:35:09.134Z,9.97
2023-05-21T20:37:37.325Z,11.03
2023-05-21T20:40:08.018Z,10.33
2023-05-21T20:42:36.636Z,10.97
2023-05-21T20:45:06.029Z,10.33
2023-05-21T20:47:34.287Z,11.10
2023-05-21T20:50:03.652Z,10.30
2023-05-21T20:52:32.231Z,9.77
2023-05-21T20:55:00.693Z,9.63
2023-05-21T20:57:30.138Z,10.20
2023-05-21T20:59:58.190Z,10.33
2023-05-21T21:02:26.977Z,9.03
2023-05-21T21:04:56.300Z,11.27
2023-05-21T21:07:24.458Z,10.17
2023-05-21T21:09:52.605Z,8.67
2023-05-21T21:12:26.403Z,10.93
2023-05-21T21:14:56.754Z,8.80
2023-05-21T21:17:24.915Z,8.87
2023-05-21T21:19:53.102Z,10.27
2023-05-21T21:22:21.560Z,8.90
2023-05-21T21:24:49.742Z,10.13
2023-05-21T21:27:17.875Z,9.20
2023-05-21T21:29:46.514Z,10.17
2023-05-21T21:32:16.062Z,9.10
2023-05-21T21:34:44.109Z,9.23
2023-05-21T21:37:13.337Z,12.53
2023-05-21T21:39:41.712Z,12.00
2023-05-21T21:42:09.891Z,8.53
2023-05-21T21:44:39.224Z,9.03
2023-05-21T21:47:07.651Z,11.10
2023-05-21T21:49:37.175Z,9.47
2023-05-21T21:52:07.113Z,11.60
2023-05-21T21:54:35.652Z,9.80
2023-05-21T21:57:03.931Z,10.03
2023-05-21T21:59:32.118Z,12.23
2023-05-21T22:02:00.434Z,12.90
2023-05-21T22:04:28.546Z,9.27
2023-05-21T22:06:58.008Z,10.90
2023-05-21T22:09:26.174Z,9.43
2023-05-21T22:11:54.399Z,9.93
2023-05-21T22:14:22.447Z,11.67
2023-05-21T22:16:53.136Z,11.20
2023-05-21T22:19:22.739Z,9.63
2023-05-21T22:21:50.925Z,14.00
2023-05-21T22:24:31.445Z,11.83
2023-05-21T22:27:01.286Z,7.90
2023-05-21T22:29:29.394Z,12.63
2023-05-21T22:31:57.671Z,9.30
2023-05-21T22:34:25.725Z,8.87
2023-05-21T22:36:53.967Z,10.33
2023-05-21T22:39:23.438Z,12.40
2023-05-21T22:41:51.555Z,8.97
2023-05-21T22:44:20.126Z,10.07
2023-05-21T22:46:49.298Z,11.93
2023-05-21T22:49:17.595Z,9.43
2023-05-21T22:51:46.369Z,9.87
2023-05-21T22:54:14.456Z,9.47
2023-05-21T22:56:44.357Z,10.80
2023-05-21T22:59:12.434Z,9.40
2023-05-21T23:01:40.711Z,12.50
2023-05-21T23:04:08.829Z,9.37
2023-05-21T23:06:37.037Z,9.30
2023-05-21T23:09:05.290Z,11.93
2023-05-21T23:11:33.461Z,9.30
2023-05-21T23:14:03.056Z,11.27
2023-05-21T23:16:32.287Z,9.70
2023-05-21T23:19:01.237Z,10.33
2023-05-21T23:21:29.652Z,10.00
2023-05-21T23:23:57.772Z,11.23
2023-05-21T23:26:26.849Z,10.50
2023-05-21T23:28:54.909Z,11.20
2023-05-21T23:31:24.609Z,12.63
2023-05-21T23:33:53.039Z,13.10
2023-05-21T23:36:21.401Z,11.33
2023-05-21T23:38:49.519Z,11.20
2023-05-21T23:41:17.625Z,10.40
2023-05-21T23:43:45.715Z,11.37
2023-05-21T23:46:13.805Z,11.63
2023-05-21T23:48:43.337Z,11.10
2023-05-21T23:51:11.457Z,11.90
2023-05-21T23:53:39.550Z,9.77
2023-05-21T23:56:08.145Z,11.37
2023-05-21T23:58:36.340Z,11.93
